Time;durP1;ratioP1;P1;durP2;ratioP2;P2;SDS_P1;SDS_P2;PMS_P1;PMS_P2;Temp;Humidity;BMP_temperature;BMP_pressure;BME280_temperature;BME280_humidity;BME280_pressure;Samples;Min_cycle;Max_cycle;Signal;HPM_P1;HPM_P2
2022/06/22 00:01:42;;;;;;;4.1;7.2;;;;;;;11.2;100;98180;;;;
2022/06/22 00:12:42;;;;;;;4.1;7.2;;;;;;;11;100;98180;;;;
2022/06/22 00:22:42;;;;;;;4.1;7.2;;;;;;;10.9;100;98170;;;;
2022/06/22 00:32:42;;;;;;;5.3;8.9;;;;;;;10.7;100;98180;;;;
2022/06/22 00:42:42;;;;;;;5.3;8.9;;;;;;;10.6;100;98200;;;;
2022/06/22 00:52:42;;;;;;;5.3;8.9;;;;;;;10.5;100;98210;;;;
2022/06/22 01:03:42;;;;;;;5.5;8.9;;;;;;;10.4;100;98220;;;;
2022/06/22 01:13:42;;;;;;;5.5;8.9;;;;;;;10.4;100;98230;;;;
2022/06/22 01:23:42;;;;;;;5.5;8.9;;;;;;;10.4;100;98230;;;;
2022/06/22 01:33:42;;;;;;;5.5;9.4;;;;;;;10.3;100;98230;;;;
2022/06/22 01:43:42;;;;;;;5.5;9.4;;;;;;;10.1;100;98230;;;;
2022/06/22 01:53:42;;;;;;;5.5;9.4;;;;;;;10.1;100;98240;;;;
2022/06/22 02:04:42;;;;;;;5.7;8.8;;;;;;;10;100;98240;;;;
2022/06/22 02:14:42;;;;;;;5.7;8.8;;;;;;;10;100;98250;;;;
2022/06/22 02:25:42;;;;;;;5.7;8.8;;;;;;;10;100;98250;;;;
2022/06/22 02:35:43;;;;;;;6.2;10.5;;;;;;;9.9;100;98250;;;;
2022/06/22 02:46:42;;;;;;;6.2;10.5;;;;;;;9.9;100;98280;;;;
2022/06/22 02:57:42;;;;;;;6.2;10.5;;;;;;;9.9;100;98290;;;;
2022/06/22 03:07:42;;;;;;;6.1;8.8;;;;;;;10.1;100;98300;;;;
2022/06/22 03:17:42;;;;;;;6.1;8.8;;;;;;;10.2;100;98310;;;;
2022/06/22 03:28:43;;;;;;;7.4;11.4;;;;;;;10.5;100;98320;;;;
2022/06/22 03:38:42;;;;;;;7.4;11.4;;;;;;;10.7;100;98320;;;;
2022/06/22 03:49:42;;;;;;;7.4;11.4;;;;;;;10.9;100;98290;;;;
2022/06/22 03:59:42;;;;;;;6.8;9.2;;;;;;;11.2;100;98290;;;;
2022/06/22 04:10:42;;;;;;;6.8;9.2;;;;;;;11.4;100;98290;;;;
2022/06/22 04:20:50;;;;;;;6.8;9.2;;;;;;;11.7;100;98300;;;;
2022/06/22 04:31:42;;;;;;;6;9.3;;;;;;;12.2;100;98310;;;;
2022/06/22 04:42:42;;;;;;;6;9.3;;;;;;;12.5;100;98320;;;;
2022/06/22 04:53:42;;;;;;;6;9.3;;;;;;;13.1;100;98330;;;;
2022/06/22 05:04:42;;;;;;;5.2;7.2;;;;;;;13.6;100;98330;;;;
2022/06/22 05:14:42;;;;;;;5.2;7.2;;;;;;;13.9;100;98340;;;;
2022/06/22 05:25:42;;;;;;;5.2;7.2;;;;;;;14.3;100;98350;;;;
2022/06/22 05:35:42;;;;;;;5.7;9.1;;;;;;;14.6;100;98370;;;;
2022/06/22 05:45:42;;;;;;;5.7;9.1;;;;;;;14.9;100;98380;;;;
2022/06/22 05:56:43;;;;;;;5.7;9.1;;;;;;;14.9;100;98380;;;;
2022/06/22 06:07:42;;;;;;;5.4;8.8;;;;;;;15.5;100;98370;;;;
2022/06/22 06:17:42;;;;;;;5.4;8.8;;;;;;;15.7;100;98360;;;;
2022/06/22 06:28:42;;;;;;;4.3;7.1;;;;;;;16.2;100;98360;;;;
2022/06/22 06:38:42;;;;;;;4.3;7.1;;;;;;;16.5;100;98360;;;;
2022/06/22 06:49:42;;;;;;;4.3;7.1;;;;;;;17.1;100;98350;;;;
2022/06/22 06:59:42;;;;;;;2.8;7.8;;;;;;;17.5;100;98350;;;;
2022/06/22 07:09:42;;;;;;;2.8;7.8;;;;;;;17.6;100;98340;;;;
2022/06/22 07:20:42;;;;;;;2.8;7.8;;;;;;;17.9;100;98340;;;;
2022/06/22 07:30:42;;;;;;;1.7;3.9;;;;;;;18;100;98340;;;;
2022/06/22 07:41:42;;;;;;;1.7;3.9;;;;;;;18.5;100;98340;;;;
2022/06/22 07:52:42;;;;;;;1.7;3.9;;;;;;;18.8;100;98340;;;;
2022/06/22 08:02:43;;;;;;;1.4;3.8;;;;;;;18.8;100;98340;;;;
2022/06/22 08:13:42;;;;;;;1.4;3.8;;;;;;;19.1;100;98330;;;;
2022/06/22 08:23:42;;;;;;;1.4;3.8;;;;;;;19;100;98330;;;;
2022/06/22 08:34:42;;;;;;;1.6;4.4;;;;;;;19.7;100;98340;;;;
2022/06/22 08:44:42;;;;;;;1.6;4.4;;;;;;;19.5;100;98330;;;;
2022/06/22 08:55:42;;;;;;;1.6;4.4;;;;;;;20;100;98330;;;;
2022/06/22 09:05:42;;;;;;;1.9;4.8;;;;;;;20.3;100;98340;;;;
2022/06/22 09:16:42;;;;;;;1.9;4.8;;;;;;;20.6;100;98340;;;;
2022/06/22 09:27:42;;;;;;;1.9;4.8;;;;;;;20.8;99.9;98340;;;;
2022/06/22 09:37:42;;;;;;;2.2;6;;;;;;;21.3;99.5;98330;;;;
2022/06/22 09:48:42;;;;;;;2.2;6;;;;;;;21.4;90.9;98330;;;;
2022/06/22 09:59:42;;;;;;;2.2;4.9;;;;;;;21.4;83;98310;;;;
2022/06/22 10:09:42;;;;;;;2.2;4.9;;;;;;;21.8;88.7;98310;;;;
2022/06/22 10:19:43;;;;;;;2.2;4.9;;;;;;;22.1;70.2;98300;;;;
2022/06/22 10:30:42;;;;;;;1.8;4.2;;;;;;;22.2;72.1;98310;;;;
2022/06/22 10:51:42;;;;;;;1.8;4.2;;;;;;;22.5;71.8;98280;;;;
2022/06/22 11:01:42;;;;;;;1.6;4.7;;;;;;;22.8;70.5;98280;;;;
2022/06/22 11:11:42;;;;;;;1.6;4.7;;;;;;;22.5;69.5;98280;;;;
2022/06/22 11:22:42;;;;;;;1.6;4.7;;;;;;;22.2;68.7;98290;;;;
2022/06/22 11:32:42;;;;;;;1.5;4.5;;;;;;;22.6;71.8;98280;;;;
2022/06/22 11:42:42;;;;;;;1.5;4.5;;;;;;;22.7;70.7;98270;;;;
2022/06/22 11:52:42;;;;;;;1.5;4.5;;;;;;;23;68.8;98280;;;;
2022/06/22 12:03:43;;;;;;;1.3;4.4;;;;;;;23.5;66.2;98280;;;;
2022/06/22 12:15:16;;;;;;;1.3;4.4;;;;;;;23.9;64.5;98280;;;;
2022/06/22 12:24:42;;;;;;;1.3;4.4;;;;;;;24.3;64.7;98280;;;;
2022/06/22 12:34:42;;;;;;;1.8;3.7;;;;;;;24.3;62.1;98280;;;;
2022/06/22 12:45:42;;;;;;;1.8;3.7;;;;;;;24.7;60.9;98280;;;;
2022/06/22 12:55:42;;;;;;;1.8;3.7;;;;;;;24.2;59.1;98270;;;;
2022/06/22 13:06:42;;;;;;;1.4;5.5;;;;;;;23.9;63;98270;;;;
2022/06/22 13:17:42;;;;;;;1.4;5.5;;;;;;;24.6;60;98250;;;;
2022/06/22 13:28:42;;;;;;;1.6;4.7;;;;;;;25.4;58.1;98240;;;;
2022/06/22 13:39:42;;;;;;;1.6;4.7;;;;;;;25.6;54.9;98240;;;;
2022/06/22 13:49:43;;;;;;;1.6;4.7;;;;;;;25.3;56.2;98260;;;;
2022/06/22 13:59:43;;;;;;;1.2;3;;;;;;;24.9;57.2;98250;;;;
2022/06/22 14:09:42;;;;;;;1.2;3;;;;;;;25.1;54.8;98250;;;;
2022/06/22 14:20:43;;;;;;;1.2;3;;;;;;;25.9;54.9;98240;;;;
2022/06/22 14:30:43;;;;;;;1.4;6;;;;;;;26.1;53.1;98240;;;;
2022/06/22 14:40:43;;;;;;;1.4;6;;;;;;;26.6;54.4;98230;;;;
2022/06/22 14:51:43;;;;;;;1.4;6;;;;;;;24.9;55.9;98230;;;;
2022/06/22 15:01:43;;;;;;;1.7;4;;;;;;;26.2;56.9;98220;;;;
2022/06/22 15:12:58;;;;;;;1.7;4;;;;;;;30.2;45.4;98220;;;;
2022/06/22 15:22:43;;;;;;;1.7;4;;;;;;;31;42.4;98220;;;;
2022/06/22 15:32:43;;;;;;;1.3;4.2;;;;;;;32.5;41.2;98210;;;;
2022/06/22 15:42:42;;;;;;;1.3;4.2;;;;;;;32.8;40.1;98210;;;;
2022/06/22 15:52:43;;;;;;;1.3;4.2;;;;;;;34.3;38;98200;;;;
2022/06/22 16:02:42;;;;;;;1.4;3.5;;;;;;;34.4;38;98180;;;;
2022/06/22 16:13:43;;;;;;;1.4;3.5;;;;;;;33.7;38.9;98170;;;;
2022/06/22 16:24:43;;;;;;;1.4;3.5;;;;;;;32.1;40;98160;;;;
2022/06/22 16:35:43;;;;;;;14.6;24.6;;;;;;;29.5;43.8;98140;;;;
2022/06/22 16:46:42;;;;;;;14.6;24.6;;;;;;;32.4;40.2;98140;;;;
2022/06/22 16:57:43;;;;;;;14.6;24.6;;;;;;;33.5;38.6;98160;;;;
2022/06/22 17:08:43;;;;;;;2.4;4.9;;;;;;;31.6;40.5;98160;;;;
2022/06/22 17:18:43;;;;;;;2.4;4.9;;;;;;;27.9;45.5;98150;;;;
2022/06/22 17:29:42;;;;;;;2.7;9.4;;;;;;;27.9;47.5;98160;;;;
2022/06/22 17:40:43;;;;;;;2.7;9.4;;;;;;;29.5;45.3;98170;;;;
2022/06/22 17:51:43;;;;;;;2.7;9.4;;;;;;;29.5;46.2;98180;;;;
2022/06/22 18:02:43;;;;;;;7.5;11.5;;;;;;;28.7;46.2;98180;;;;
2022/06/22 18:12:43;;;;;;;7.5;11.5;;;;;;;26.6;48.6;98190;;;;
2022/06/22 18:23:43;;;;;;;7.5;11.5;;;;;;;24.6;56.5;98190;;;;
2022/06/22 18:34:43;;;;;;;4.6;8.1;;;;;;;22.8;59.5;98200;;;;
2022/06/22 18:44:43;;;;;;;4.6;8.1;;;;;;;21.8;63.1;98210;;;;
2022/06/22 18:54:43;;;;;;;4.6;8.1;;;;;;;20.7;68.9;98210;;;;
2022/06/22 19:05:43;;;;;;;3.3;7.7;;;;;;;19.8;78.2;98210;;;;
2022/06/22 19:15:43;;;;;;;3.3;7.7;;;;;;;18.8;94.1;98220;;;;
2022/06/22 19:26:44;;;;;;;3.3;7.7;;;;;;;18.2;88.3;98230;;;;
2022/06/22 19:36:43;;;;;;;4.2;7.8;;;;;;;17.8;91.1;98230;;;;
2022/06/22 19:46:43;;;;;;;4.2;7.8;;;;;;;17.6;90.8;98230;;;;
2022/06/22 19:57:43;;;;;;;4.2;7.8;;;;;;;17.3;95.7;98240;;;;
2022/06/22 20:07:43;;;;;;;3.6;6.3;;;;;;;17.2;96.4;98230;;;;
2022/06/22 20:17:43;;;;;;;3.6;6.3;;;;;;;17;96.8;98240;;;;
2022/06/22 20:27:43;;;;;;;3.6;6.3;;;;;;;16.7;97.7;98250;;;;
2022/06/22 20:37:43;;;;;;;3;6.1;;;;;;;16.4;99.4;98240;;;;
2022/06/22 20:47:45;;;;;;;3;6.1;;;;;;;16.2;100;98260;;;;
2022/06/22 20:58:43;;;;;;;3;6.1;;;;;;;15.9;100;98260;;;;
2022/06/22 21:08:43;;;;;;;3.6;6.2;;;;;;;15.6;100;98260;;;;
2022/06/22 21:19:43;;;;;;;3.6;6.2;;;;;;;15.4;100;98260;;;;
2022/06/22 21:29:43;;;;;;;4.3;7.6;;;;;;;15.1;100;98270;;;;
2022/06/22 21:40:43;;;;;;;4.3;7.6;;;;;;;14.8;100;98280;;;;
2022/06/22 21:50:43;;;;;;;4.3;7.6;;;;;;;14.5;100;98280;;;;
2022/06/22 22:01:43;;;;;;;3.1;6.6;;;;;;;14.4;100;98280;;;;
2022/06/22 22:11:43;;;;;;;3.1;6.6;;;;;;;14.2;100;98280;;;;
2022/06/22 22:22:43;;;;;;;3.1;6.6;;;;;;;14;100;98270;;;;
2022/06/22 22:32:43;;;;;;;3.7;9.2;;;;;;;13.8;100;98270;;;;
2022/06/22 22:42:43;;;;;;;3.7;9.2;;;;;;;13.7;100;98270;;;;
2022/06/22 22:52:43;;;;;;;3.7;9.2;;;;;;;13.5;100;98270;;;;
2022/06/22 23:03:43;;;;;;;3.7;6.9;;;;;;;13.4;100;98270;;;;
2022/06/22 23:13:43;;;;;;;3.7;6.9;;;;;;;13.1;100;98270;;;;
2022/06/22 23:24:43;;;;;;;3.7;6.9;;;;;;;13;100;98280;;;;
2022/06/22 23:34:44;;;;;;;4.3;7.4;;;;;;;12.9;100;98260;;;;
2022/06/22 23:45:43;;;;;;;4.3;7.4;;;;;;;12.9;100;98260;;;;
2022/06/22 23:56:43;;;;;;;4.3;7.4;;;;;;;12.7;100;98260;;;;
